Dr.kaiyo — JD2325 — position and weather

sailwx.info

Track history (hours):
 
Tides and Currents Weather Stations Pressure Air Temp Water Temp Dewpoint Dewpoint Depression Visibility Wind Speed Wind Dir Waves Ship Positions

Dr.kaiyo

Last reported at 2015-Apr-28 04:33 UTC. Time now 2015-May-04 16:06 UTC.
Position N 34°42' E 135°12'.

Length 31 m.

Type: Other ship. MMSI: 431301823.

Date/timePositionNaut miles runAvg speedWind from/ knotsBaromVisibWave heightAir tempDewpointWater temp
2015-Apr-28 04:33N 34°42' E 135°12'3 2.4
2015-Apr-28 03:24N 34°39' E 135°12'3 3.6
2015-Apr-28 02:33N 34°36' E 135°10'1110.5
2015-Apr-28 01:33N 34°26' E 135°07'7 6.9
2015-Apr-28 00:33N 34°33' E 135°06'10 9.7
2015-Apr-27 23:31N 34°41' E 135°12'0 0.0
2015-Apr-27 06:28N 34°41' E 135°12'8 8.4
2015-Apr-27 05:33N 34°35' E 135°08'8 7.7
2015-Apr-27 04:33N 34°27' E 135°09'4 2.1
2015-Apr-27 02:33N 34°23' E 135°06'8 7.8
2015-Apr-27 01:33N 34°31' E 135°09'1111.4
2015-Apr-27 00:33N 34°42' E 135°12'0 0.1
2015-Apr-26 23:31N 34°41' E 135°12'  
2015-Apr-24 03:33N 34°41' E 135°15'1111.0
2015-Apr-24 02:33N 34°30' E 135°11'9 9.1
2015-Apr-24 01:33N 34°25' E 135°01'10 9.7
2015-Apr-24 00:33N 34°33' E 135°08'9 8.2
2015-Apr-23 23:28N 34°41' E 135°12'2 0.1
2015-Apr-23 04:33N 34°41' E 135°15'4 4.4
2015-Apr-23 03:32N 34°40' E 135°20'2 2.1
2015-Apr-23 02:33N 34°38' E 135°19'1414.0
2015-Apr-23 01:33N 34°27' E 135°09'7 6.7
2015-Apr-23 00:33N 34°34' E 135°09'8 7.6
2015-Apr-22 23:28N 34°41' E 135°12'2 0.1
2015-Apr-22 03:33N 34°40' E 135°15'4 3.4
2015-Apr-22 02:25N 34°40' E 135°20'8 8.1
2015-Apr-22 01:28N 34°32' E 135°21'8 9.1
2015-Apr-22 00:33N 34°37' E 135°13'5 4.2
2015-Apr-21 23:22N 34°41' E 135°12'0 0.0
2015-Apr-21 04:16N 34°42' E 135°12'3 2.5
2015-Apr-21 03:11N 34°39' E 135°12'0 0.0
2015-Apr-21 02:29N 34°39' E 135°12'1010.0
2015-Apr-21 01:31N 34°32' E 135°03'3 3.4
2015-Apr-21 00:33N 34°33' E 135°07'10 9.0
2015-Apr-20 23:29N 34°41' E 135°12'0 0.0
2015-Apr-20 04:32N 34°42' E 135°12'7 5.7
2015-Apr-20 03:22N 34°41' E 135°20'0 0.1
2015-Apr-20 02:29N 34°41' E 135°20'7 7.1
2015-Apr-20 01:33N 34°37' E 135°14'5 4.7
2015-Apr-20 00:33N 34°35' E 135°09'7 5.9
2015-Apr-19 23:22N 34°41' E 135°12'  
Track history (hours):
 
Tides and Currents Weather Stations Pressure Air Temp Water Temp Dewpoint Dewpoint Depression Visibility Wind Speed Wind Dir Waves Ship Positions

Dr.kaiyo

Last reported at 2015-Apr-28 04:33 UTC. Time now 2015-May-04 16:06 UTC.
Position N 34°42' E 135°12'.

Length 31 m.

Type: Other ship. MMSI: 431301823.

Date/timePositionNaut miles runAvg speedWind from/ knotsBaromVisibWave heightAir tempDewpointWater temp
2015-Apr-28 04:33N 34°42' E 135°12'3 2.4
2015-Apr-28 03:24N 34°39' E 135°12'3 3.6
2015-Apr-28 02:33N 34°36' E 135°10'1110.5
2015-Apr-28 01:33N 34°26' E 135°07'7 6.9
2015-Apr-28 00:33N 34°33' E 135°06'10 9.7
2015-Apr-27 23:31N 34°41' E 135°12'0 0.0
2015-Apr-27 06:28N 34°41' E 135°12'8 8.4
2015-Apr-27 05:33N 34°35' E 135°08'8 7.7
2015-Apr-27 04:33N 34°27' E 135°09'4 2.1
2015-Apr-27 02:33N 34°23' E 135°06'8 7.8
2015-Apr-27 01:33N 34°31' E 135°09'1111.4
2015-Apr-27 00:33N 34°42' E 135°12'0 0.1
2015-Apr-26 23:31N 34°41' E 135°12'  
2015-Apr-24 03:33N 34°41' E 135°15'1111.0
2015-Apr-24 02:33N 34°30' E 135°11'9 9.1
2015-Apr-24 01:33N 34°25' E 135°01'10 9.7
2015-Apr-24 00:33N 34°33' E 135°08'9 8.2
2015-Apr-23 23:28N 34°41' E 135°12'2 0.1
2015-Apr-23 04:33N 34°41' E 135°15'4 4.4
2015-Apr-23 03:32N 34°40' E 135°20'2 2.1
2015-Apr-23 02:33N 34°38' E 135°19'1414.0
2015-Apr-23 01:33N 34°27' E 135°09'7 6.7
2015-Apr-23 00:33N 34°34' E 135°09'8 7.6
2015-Apr-22 23:28N 34°41' E 135°12'2 0.1
2015-Apr-22 03:33N 34°40' E 135°15'4 3.4
2015-Apr-22 02:25N 34°40' E 135°20'8 8.1
2015-Apr-22 01:28N 34°32' E 135°21'8 9.1
2015-Apr-22 00:33N 34°37' E 135°13'5 4.2
2015-Apr-21 23:22N 34°41' E 135°12'0 0.0
2015-Apr-21 04:16N 34°42' E 135°12'3 2.5
2015-Apr-21 03:11N 34°39' E 135°12'0 0.0
2015-Apr-21 02:29N 34°39' E 135°12'1010.0
2015-Apr-21 01:31N 34°32' E 135°03'3 3.4
2015-Apr-21 00:33N 34°33' E 135°07'10 9.0
2015-Apr-20 23:29N 34°41' E 135°12'0 0.0
2015-Apr-20 04:32N 34°42' E 135°12'7 5.7
2015-Apr-20 03:22N 34°41' E 135°20'0 0.1
2015-Apr-20 02:29N 34°41' E 135°20'7 7.1
2015-Apr-20 01:33N 34°37' E 135°14'5 4.7
2015-Apr-20 00:33N 34°35' E 135°09'7 5.9
2015-Apr-19 23:22N 34°41' E 135°12'  

Dump ship's entire track history